Terminal Aerodrome Forecast
Issued by NWS Blacksburg, VA

Home | Current Version | Previous Version | Text Only | Print | Product List | Glossary On
Versions: 1 2 3 4 5 6 7 8 9 10 11 12 13 14
000
FTUS41 KRNK 292320
TAFROA
TAF
KROA 292320Z 3000/3024 VRB04KT P6SM VCSH SCT020 BKN040
      TEMPO 3000/3002 3SM -SHRA BR OVC020
     FM301600 04006KT P6SM VCTS BKN040CB=

USA.gov is the U.S. government's official web portal to all federal, state and local government web resources and services.